Dades meteomassalio
Diari Summary for Gener 28, 2017 Units:  English    Metric   Both
« Previous Day
Next Day »
Diari Semanal Mensual Anual Personalitzat
  Maxima: Minima: Mijana:
Temperatura: 53.4 °F 43.3 °F 47.3 °F
Rosada: 42.8 °F 35.4 °F 39.4 °F
Humitat: 93 % 54 % 75 %
Velocitat del vent: 32.2 mph 0 mph 15.7 mph
Racha vent: 32.2 mph - -
Vent:- - WNW
Pressio: 30.3 in 29.9 in -
Pluja: 0.31 in    
Historical Graphs
 
 
Tabular Data for Gener 28, 2017
Time Temperature Dew Point Pressure Wind Wind Speed Wind Gust Humidity Rainfall Rate (Hourly) solar Conditions
00:03 46.9 °F 42.6 °F 29.9 in WNW 19.6 mph 19.6 mph 85 % 0 in 0.0 W/m2 RA
00:13 46.8 °F 41.9 °F 29.9 in WNW 15 mph 15 mph 83 % 0 in 0.0 W/m2 CLR
00:18 46.6 °F 41.7 °F 29.9 in WNW 15 mph 15 mph 83 % 0 in 0.0 W/m2 CLR
00:28 46.2 °F 41.9 °F 29.9 in WNW 19.6 mph 19.6 mph 85 % 0 in 0.0 W/m2 CLR
00:33 46 °F 42.1 °F 29.9 in WNW 18.4 mph 18.4 mph 86 % 0 in 0.0 W/m2 CLR
00:38 45.9 °F 41.9 °F 29.9 in WNW 15 mph 15 mph 86 % 0 in 0.0 W/m2 CLR
00:48 45.9 °F 42.3 °F 29.9 in WNW 11.5 mph 11.5 mph 87 % 0 in 0.0 W/m2 CLR
00:53 45.7 °F 42.1 °F 29.9 in WNW 10.4 mph 10.4 mph 87 % 0 in 0.0 W/m2 CLR
00:58 45.7 °F 42.3 °F 29.9 in WNW 11.5 mph 11.5 mph 88 % 0 in 0.0 W/m2 CLR
01:03 45.7 °F 42.4 °F 29.9 in WNW 17.3 mph 17.3 mph 89 % 0 in 0.0 W/m2 CLR
01:08 45.5 °F 42.6 °F 29.9 in WNW 18.4 mph 18.4 mph 90 % 0 in 0.0 W/m2 CLR
01:13 45.3 °F 42.8 °F 29.9 in WNW 11.5 mph 11.5 mph 91 % 0 in 0.0 W/m2 CLR
01:18 45.1 °F 42.6 °F 29.9 in NW 11.5 mph 11.5 mph 91 % 0.01 in 0.0 W/m2 RA
01:23 44.8 °F 42.3 °F 29.9 in NW 12.7 mph 12.7 mph 91 % 0.01 in 0.0 W/m2
01:28 44.6 °F 42.1 °F 29.9 in NW 18.4 mph 18.4 mph 91 % 0.01 in 0.0 W/m2 CLR
01:33 44.4 °F 42.3 °F 29.9 in NW 18 mph 18 mph 92 % 0.01 in 0.0 W/m2 CLR
01:38 44.2 °F 42.1 °F 29.9 in NW 16.1 mph 16.1 mph 92 % 0.01 in 0.0 W/m2 CLR
01:43 44.2 °F 42.1 °F 29.9 in NW 15 mph 15 mph 92 % 0.01 in 0.0 W/m2 CLR
01:53 44.2 °F 42.1 °F 29.9 in NW 16.1 mph 16.1 mph 92 % 0.01 in 0.0 W/m2 CLR
01:58 44.1 °F 41.9 °F 29.9 in NW 14 mph 14 mph 92 % 0.01 in 0.0 W/m2 CLR
02:08 44.1 °F 41.7 °F 29.9 in NW 18.4 mph 18.4 mph 92 % 0.03 in 0.0 W/m2 RA
02:13 44.1 °F 41.7 °F 29.9 in NW 16.1 mph 16.1 mph 92 % 0.04 in 0.0 W/m2 RA
02:18 44.1 °F 41.7 °F 29.9 in NW 17.3 mph 17.3 mph 92 % 0.05 in 0.0 W/m2 RA
02:23 43.9 °F 41.7 °F 29.9 in NW 21 mph 21 mph 92 % 0.06 in 0.0 W/m2 RA
02:28 43.9 °F 41.7 °F 29.9 in NW 16.1 mph 16.1 mph 92 % 0.11 in 0.0 W/m2 RA
02:33 43.9 °F 41.5 °F 29.9 in NW 16.1 mph 16.1 mph 92 % 0.13 in 0.0 W/m2 RA
02:38 43.9 °F 41.9 °F 29.9 in NW 13.8 mph 13.8 mph 93 % 0.14 in 0.0 W/m2 RA
02:43 43.9 °F 41.7 °F 29.9 in NW 12.7 mph 12.7 mph 92 % 0.15 in 0.0 W/m2 RA
02:48 43.9 °F 41.7 °F 29.9 in NW 14 mph 14 mph 92 % 0.16 in 0.0 W/m2 RA
02:53 43.9 °F 42.1 °F 29.9 in NW 19.6 mph 19.6 mph 93 % 0.16 in 0.0 W/m2 CLR
02:58 44.1 °F 42.1 °F 29.9 in NW 20.7 mph 20.7 mph 93 % 0.17 in 0.0 W/m2 RA
03:03 43.9 °F 42.1 °F 29.9 in NW 19.6 mph 19.6 mph 93 % 0.17 in 0.0 W/m2 CLR
03:08 43.9 °F 42.1 °F 29.9 in NW 17.3 mph 17.3 mph 93 % 0.15 in 0.0 W/m2 RA
03:13 43.9 °F 42.1 °F 29.9 in NW 18.4 mph 18.4 mph 93 % 0.14 in 0.0 W/m2 CLR
03:18 43.9 °F 42.1 °F 29.9 in NW 16.1 mph 16.1 mph 93 % 0.13 in 0.0 W/m2 CLR
03:39 43.9 °F 41.9 °F 29.9 in NW 16.1 mph 16.1 mph 93 % 0.05 in 0.0 W/m2
03:44 43.9 °F 41.9 °F 29.9 in WNW 13.8 mph 13.8 mph 93 % 0.04 in 0.0 W/m2 CLR
03:49 43.9 °F 41.9 °F 29.9 in NW 18.4 mph 18.4 mph 93 % 0.05 in 0.0 W/m2 RA
03:54 43.9 °F 41.9 °F 29.9 in NW 11.5 mph 11.5 mph 93 % 0.06 in 0.0 W/m2 RA
03:59 43.9 °F 41.9 °F 29.9 in NW 18.4 mph 18.4 mph 93 % 0.05 in 0.0 W/m2
04:04 43.9 °F 42.1 °F 29.9 in NW 12.7 mph 12.7 mph 93 % 0.06 in 0.0 W/m2 RA
04:09 43.9 °F 42.1 °F 29.9 in NW 17.3 mph 17.3 mph 93 % 0.05 in 0.0 W/m2 CLR
04:14 44.1 °F 42.1 °F 29.9 in NW 15 mph 15 mph 93 % 0.06 in 0.0 W/m2 RA
04:24 44.1 °F 42.3 °F 30 in NW 15 mph 15 mph 93 % 0.05 in 0.0 W/m2 CLR
04:28 44.1 °F 42.3 °F 30 in NW 13.8 mph 13.8 mph 93 % 0.05 in 0.0 W/m2 CLR
04:33 44.1 °F 42.3 °F 30 in NW 10.4 mph 10.4 mph 93 % 0.04 in 0.0 W/m2 CLR
04:43 44.2 °F 42.3 °F 30 in NW 14 mph 14 mph 93 % 0.04 in 0.0 W/m2 CLR
04:48 44.2 °F 42.3 °F 30 in NW 11.5 mph 11.5 mph 93 % 0.02 in 0.0 W/m2 CLR
04:53 44.2 °F 42.3 °F 30 in NW 11.5 mph 11.5 mph 93 % 0.02 in 0.0 W/m2 CLR
04:58 44.2 °F 42.3 °F 30 in NW 13.8 mph 13.8 mph 93 % 0.02 in 0.0 W/m2 CLR
05:03 44.2 °F 42.3 °F 30 in NW 13.8 mph 13.8 mph 93 % 0.01 in 0.0 W/m2 CLR
05:13 44.1 °F 41.9 °F 30 in NW 13.8 mph 13.8 mph 92 % 0 in 0.0 W/m2 CLR
05:18 44.1 °F 42.3 °F 30 in NW 13.8 mph 13.8 mph 93 % 0 in 0.0 W/m2 CLR
05:23 44.1 °F 41.9 °F 30 in NW 18.4 mph 18.4 mph 92 % 0 in 0.0 W/m2 CLR
05:28 44.2 °F 42.1 °F 30 in NW 13.8 mph 13.8 mph 92 % 0 in 0.0 W/m2 CLR
05:33 44.2 °F 42.1 °F 30 in NW 14 mph 14 mph 92 % 0 in 0.0 W/m2 CLR
05:38 44.2 °F 42.1 °F 30 in NW 19.6 mph 19.6 mph 92 % 0 in 0.0 W/m2 CLR
05:48 44.2 °F 41.7 °F 30 in NW 17 mph 17 mph 91 % 0 in 0.0 W/m2 CLR
05:53 44.2 °F 41.7 °F 30 in NW 19.6 mph 19.6 mph 91 % 0 in 0.0 W/m2 CLR
05:58 44.2 °F 41.7 °F 30 in NW 19.6 mph 19.6 mph 91 % 0 in 0.0 W/m2 CLR
06:03 44.1 °F 41.5 °F 30 in NW 11.5 mph 11.5 mph 91 % 0 in 0.0 W/m2 CLR
06:08 44.1 °F 41.5 °F 30 in NW 12.7 mph 12.7 mph 91 % 0 in 0.0 W/m2 CLR
06:13 44.1 °F 41.5 °F 30 in NW 15 mph 15 mph 91 % 0 in 0.0 W/m2 CLR
06:18 44.1 °F 41.5 °F 30 in NW 15 mph 15 mph 91 % 0 in 0.0 W/m2 CLR
06:23 44.1 °F 41.5 °F 30 in NW 17.3 mph 17.3 mph 91 % 0 in 0.0 W/m2 CLR
06:28 44.1 °F 41.5 °F 30 in NW 18.4 mph 18.4 mph 91 % 0 in 0.0 W/m2 CLR
06:33 43.9 °F 41.4 °F 30 in NW 14 mph 14 mph 91 % 0.02 in 0.0 W/m2 RA
06:38 43.9 °F 41.4 °F 30 in NW 19.6 mph 19.6 mph 91 % 0.02 in 0.0 W/m2
06:43 43.7 °F 41.2 °F 30 in NW 20.7 mph 20.7 mph 91 % 0.02 in 0.0 W/m2 RA
06:53 43.5 °F 41.2 °F 30 in NW 16.1 mph 16.1 mph 91 % 0.04 in 0.0 W/m2 RA
07:03 43.5 °F 41 °F 30 in NW 18 mph 18 mph 91 % 0.05 in 0.0 W/m2 RA
07:08 43.5 °F 41 °F 30 in NW 15 mph 15 mph 91 % 0.05 in 0.0 W/m2 CLR
07:18 43.3 °F 40.8 °F 30 in NW 16 mph 16 mph 91 % 0.06 in 0.0 W/m2 CLR
07:23 43.3 °F 40.8 °F 30 in NW 13.8 mph 13.8 mph 91 % 0.06 in 0.0 W/m2 CLR
07:28 43.3 °F 40.8 °F 30.1 in NW 13.8 mph 13.8 mph 91 % 0.07 in 0.0 W/m2 RA
07:33 43.5 °F 40.8 °F 30.1 in NW 13.8 mph 13.8 mph 90 % 0.06 in 0.0 W/m2 CLR
07:38 43.5 °F 40.8 °F 30.1 in NW 18.4 mph 18.4 mph 90 % 0.06 in 0.0 W/m2 CLR
07:43 43.5 °F 40.8 °F 30.1 in NW 12.7 mph 12.7 mph 90 % 0.05 in 0.0 W/m2 CLR
07:48 43.5 °F 40.8 °F 30.1 in NW 18.4 mph 18.4 mph 90 % 0.04 in 0.0 W/m2 CLR
07:53 43.7 °F 40.6 °F 30.1 in NW 19.6 mph 19.6 mph 89 % 0.03 in 0.0 W/m2 CLR
07:58 43.9 °F 40.8 °F 30.1 in NW 21.9 mph 21.9 mph 89 % 0.03 in 0.0 W/m2 CLR
08:03 43.9 °F 40.6 °F 30.1 in NW 21.9 mph 21.9 mph 88 % 0.02 in 0.0 W/m2 OVC
08:08 43.9 °F 40.6 °F 30.1 in NW 17.3 mph 17.3 mph 88 % 0.02 in 0.0 W/m2 OVC
08:18 44.1 °F 40.6 °F 30.1 in NW 18.4 mph 18.4 mph 88 % 0.02 in 0.0 W/m2 OVC
08:23 43.9 °F 40.6 °F 30.1 in NW 12.7 mph 12.7 mph 88 % 0.02 in 0.0 W/m2 OVC
08:28 43.9 °F 40.6 °F 30.1 in WNW 10.4 mph 10.4 mph 88 % 0 in 0.0 W/m2 OVC
08:33 44.1 °F 40.6 °F 30.1 in WNW 11.5 mph 11.5 mph 88 % 0 in 5.0 W/m2 OVC
08:43 44.2 °F 40.6 °F 30.1 in NW 13.8 mph 13.8 mph 87 % 0 in 11.0 W/m2 BKN
08:48 44.2 °F 40.3 °F 30.1 in WNW 11 mph 11 mph 86 % 0 in 12.0 W/m2 BKN
08:53 44.2 °F 40.6 °F 30.1 in WNW 15 mph 15 mph 87 % 0 in 16.0 W/m2 BKN
08:59 44.2 °F 40.6 °F 30.1 in NW 12.7 mph 12.7 mph 87 % 0 in 18.0 W/m2 BKN
09:04 44.2 °F 40.5 °F 30.1 in WNW 15 mph 15 mph 86 % 0 in 23.0 W/m2 BKN
09:09 44.4 °F 40.5 °F 30.1 in NW 15 mph 15 mph 86 % 0 in 28.0 W/m2 BKN
09:14 44.6 °F 40.5 °F 30.1 in NW 19.6 mph 19.6 mph 85 % 0 in 33.0 W/m2 BKN
09:19 44.8 °F 40.6 °F 30.1 in WNW 16.1 mph 16.1 mph 85 % 0 in 39.0 W/m2 BKN
09:24 45 °F 40.5 °F 30.1 in NW 14 mph 14 mph 84 % 0 in 47.0 W/m2 BKN
09:29 45 °F 40.5 °F 30.1 in NW 17 mph 17 mph 84 % 0 in 53.0 W/m2 BKN
09:34 45.1 °F 40.3 °F 30.1 in NW 18.4 mph 18.4 mph 83 % 0 in 54.0 W/m2 SCT
09:39 45.3 °F 40.5 °F 30.1 in NW 8.1 mph 9.5 mph 83 % 0 in 60.0 W/m2 SCT
09:44 45.3 °F 40.3 °F 30.1 in WNW 16.1 mph 16.1 mph 82 % 0 in 74.0 W/m2 SCT
09:49 45.5 °F 40.3 °F 30.1 in NW 20.7 mph 20.7 mph 82 % 0 in 81.0 W/m2 FEW
09:54 45.7 °F 40.5 °F 30.1 in NW 16.1 mph 16.1 mph 82 % 0 in 84.0 W/m2 FEW
09:59 45.7 °F 40.3 °F 30.1 in NW 15 mph 15 mph 81 % 0 in 93.0 W/m2 FEW
10:04 45.9 °F 40.3 °F 30.1 in NW 17.3 mph 17.3 mph 81 % 0 in 102.0 W/m2 CLR
10:09 45.9 °F 40.1 °F 30.1 in NW 16.1 mph 16.1 mph 80 % 0 in 113.0 W/m2 CLR
10:14 46 °F 40.3 °F 30.1 in NW 19.6 mph 19.6 mph 80 % 0 in 132.0 W/m2 CLR
10:19 46.2 °F 40.5 °F 30.1 in NW 18.4 mph 18.4 mph 80 % 0 in 111.0 W/m2 CLR
10:24 46.2 °F 40.5 °F 30.1 in NW 18 mph 18 mph 80 % 0 in 120.0 W/m2 CLR
10:29 46.4 °F 40.3 °F 30.1 in NW 15 mph 15 mph 79 % 0 in 114.0 W/m2 CLR
10:34 46.4 °F 40.3 °F 30.1 in NW 17 mph 17 mph 79 % 0 in 135.0 W/m2 CLR
10:39 46.6 °F 40.5 °F 30.1 in NW 16.1 mph 16.1 mph 79 % 0 in 130.0 W/m2 CLR
10:44 46.6 °F 40.5 °F 30.1 in NW 14 mph 14 mph 79 % 0 in 137.0 W/m2 CLR
10:49 46.8 °F 40.3 °F 30.1 in NW 18.4 mph 18.4 mph 78 % 0 in 146.0 W/m2 CLR
10:54 46.8 °F 40.3 °F 30.1 in NW 17.3 mph 17.3 mph 78 % 0 in 169.0 W/m2 CLR
10:59 47.1 °F 40.6 °F 30.1 in NW 18.4 mph 18.4 mph 78 % 0 in 381.0 W/m2 CLR
11:04 47.5 °F 40.6 °F 30.1 in NW 25.3 mph 25.3 mph 77 % 0 in 339.0 W/m2 CLR
11:09 47.8 °F 40.6 °F 30.1 in NW 21.9 mph 21.9 mph 76 % 0 in 445.0 W/m2 CLR
11:14 48.4 °F 41.2 °F 30.2 in NW 21.9 mph 21.9 mph 76 % 0 in 513.0 W/m2 CLR
11:19 48.9 °F 41.7 °F 30.2 in NW 21.9 mph 21.9 mph 76 % 0 in 522.0 W/m2 CLR
11:24 48.9 °F 40.6 °F 30.2 in NW 18.4 mph 18.4 mph 73 % 0 in 385.0 W/m2 CLR
11:34 49.3 °F 41.4 °F 30.2 in NW 15 mph 15 mph 74 % 0 in 457.0 W/m2 CLR
11:39 49.5 °F 40.8 °F 30.2 in NW 26.5 mph 26.5 mph 72 % 0 in 439.0 W/m2 CLR
11:44 49.6 °F 41 °F 30.2 in NW 19.6 mph 19.6 mph 72 % 0 in 441.0 W/m2 CLR
11:49 50 °F 41.7 °F 30.2 in NW 19 mph 19 mph 73 % 0 in 468.0 W/m2 CLR
11:54 50.4 °F 41.4 °F 30.2 in NW 23 mph 23 mph 71 % 0 in 504.0 W/m2 CLR
11:59 50.4 °F 39.6 °F 30.2 in NW 32.2 mph 32.2 mph 66 % 0 in 557.0 W/m2 CLR
12:04 50.4 °F 40.3 °F 30.2 in NW 23 mph 23 mph 68 % 0 in 533.0 W/m2 CLR
12:09 50.5 °F 39.6 °F 30.2 in NW 31.1 mph 31.1 mph 66 % 0 in 510.0 W/m2 CLR
12:14 50.5 °F 39.9 °F 30.2 in NW 24.2 mph 24.2 mph 67 % 0 in 499.0 W/m2 CLR
12:19 50.7 °F 40.3 °F 30.2 in NW 23 mph 23 mph 67 % 0 in 489.0 W/m2 CLR
12:24 51.1 °F 40.1 °F 30.2 in NW 24.2 mph 24.2 mph 66 % 0 in 490.0 W/m2 CLR
12:29 51.1 °F 39.2 °F 30.2 in NW 28.8 mph 28.8 mph 64 % 0 in 499.0 W/m2 CLR
12:34 51.1 °F 38.8 °F 30.2 in NW 24.2 mph 24.2 mph 63 % 0 in 503.0 W/m2 CLR
12:39 51.3 °F 38.7 °F 30.2 in NW 27.6 mph 27.6 mph 62 % 0 in 510.0 W/m2 CLR
12:44 51.4 °F 39.4 °F 30.2 in NW 22 mph 22 mph 63 % 0 in 520.0 W/m2 CLR
12:49 51.6 °F 39.7 °F 30.2 in NW 18.4 mph 18.4 mph 64 % 0 in 548.0 W/m2 CLR
12:54 51.8 °F 40.5 °F 30.2 in NW 23 mph 23 mph 65 % 0 in 494.0 W/m2 CLR
12:59 51.6 °F 40.3 °F 30.2 in NW 19.6 mph 19.6 mph 65 % 0 in 288.0 W/m2 CLR
13:04 51.1 °F 39.9 °F 30.2 in NW 20.7 mph 20.7 mph 66 % 0 in 285.0 W/m2 CLR
13:09 51.1 °F 39.6 °F 30.2 in NW 28.8 mph 28.8 mph 65 % 0 in 359.0 W/m2 CLR
13:14 51.4 °F 39.9 °F 30.2 in NW 31 mph 31 mph 65 % 0 in 656.0 W/m2 CLR
13:19 51.6 °F 39.7 °F 30.2 in NW 26.5 mph 26.5 mph 64 % 0 in 622.0 W/m2 CLR
13:24 51.6 °F 39.7 °F 30.1 in NW 26.5 mph 26.5 mph 64 % 0 in 629.0 W/m2 CLR
13:29 51.4 °F 39.2 °F 30.1 in NW 25.3 mph 25.3 mph 63 % 0 in 195.0 W/m2 CLR
13:34 51.1 °F 39.4 °F 30.1 in NNW 24.2 mph 24.2 mph 64 % 0 in 322.0 W/m2 CLR
13:44 50.9 °F 39.6 °F 30.1 in NW 20 mph 20 mph 65 % 0 in 272.0 W/m2 CLR
13:49 51.1 °F 39.9 °F 30.1 in NW 23 mph 23 mph 66 % 0 in 406.0 W/m2 CLR
13:50 51.1 °F 40.1 °F 30.1 in NW 23 mph 23 mph 66 % 0 in 503.0 W/m2 CLR
13:55 50.9 °F 39.6 °F 30.1 in WNW 19.6 mph 19.6 mph 65 % 0 in 139.0 W/m2 CLR
14:00 50.5 °F 39.4 °F 30.1 in WNW 19.6 mph 19.6 mph 65 % 0 in 127.0 W/m2 CLR
14:05 50.5 °F 39.2 °F 30.1 in WNW 17.3 mph 17.3 mph 65 % 0 in 149.0 W/m2 CLR
14:10 50.7 °F 39 °F 30.1 in WNW 19.6 mph 19.6 mph 64 % 0 in 378.0 W/m2 CLR
14:15 51.4 °F 40.1 °F 30.1 in WNW 18.4 mph 18.4 mph 65 % 0 in 517.0 W/m2 CLR
14:20 52.2 °F 39.6 °F 30.1 in NW 23 mph 23 mph 62 % 0 in 489.0 W/m2 CLR
14:25 52.3 °F 39.7 °F 30.1 in NW 20.7 mph 20.7 mph 62 % 0 in 473.0 W/m2 CLR
14:30 52.3 °F 39.7 °F 30.1 in NW 18.4 mph 18.4 mph 62 % 0 in 471.0 W/m2 CLR
14:35 52.5 °F 40.3 °F 30.1 in NW 19.6 mph 19.6 mph 63 % 0 in 464.0 W/m2 CLR
14:45 52.5 °F 39 °F 30.1 in NW 24.2 mph 24.2 mph 60 % 0 in 450.0 W/m2 CLR
14:50 52.7 °F 38.8 °F 30.1 in NW 24.2 mph 24.2 mph 59 % 0 in 434.0 W/m2 CLR
14:55 52.7 °F 39.2 °F 30.1 in NW 17.3 mph 17.3 mph 60 % 0 in 434.0 W/m2 CLR
15:00 52.9 °F 39.4 °F 30.1 in NW 21.9 mph 21.9 mph 60 % 0 in 418.0 W/m2 CLR
15:05 52.9 °F 38.8 °F 30.1 in NW 13 mph 13 mph 59 % 0 in 380.0 W/m2 CLR
15:15 53.2 °F 38.8 °F 30.1 in NW 19.6 mph 19.6 mph 58 % 0 in 403.0 W/m2 CLR
15:20 53.2 °F 39.7 °F 30.1 in NW 18.4 mph 18.4 mph 60 % 0 in 394.0 W/m2 CLR
15:25 53.4 °F 39.4 °F 30.1 in NW 17.3 mph 17.3 mph 59 % 0 in 385.0 W/m2 CLR
15:30 53.4 °F 40.5 °F 30.1 in NW 15 mph 15 mph 61 % 0 in 373.0 W/m2 CLR
15:35 53.4 °F 38.5 °F 30.1 in NW 25.3 mph 25.3 mph 57 % 0 in 366.0 W/m2 CLR
15:40 53.4 °F 39.4 °F 30.2 in WNW 19.6 mph 19.6 mph 59 % 0 in 353.0 W/m2 CLR
15:45 53.4 °F 39.4 °F 30.2 in WNW 16 mph 16 mph 59 % 0 in 334.0 W/m2 CLR
15:55 53.1 °F 38.3 °F 30.2 in NW 16.1 mph 16.1 mph 57 % 0 in 316.0 W/m2 CLR
16:00 53.1 °F 39.6 °F 30.2 in NW 14 mph 14 mph 60 % 0 in 308.0 W/m2 CLR
16:05 53.2 °F 38.5 °F 30.2 in NW 15 mph 15 mph 57 % 0 in 295.0 W/m2 CLR
16:10 53.2 °F 38.5 °F 30.2 in NW 19.6 mph 19.6 mph 57 % 0 in 281.0 W/m2 CLR
16:15 53.2 °F 38.8 °F 30.2 in NW 17.3 mph 17.3 mph 58 % 0 in 267.0 W/m2 CLR
16:20 53.1 °F 38.7 °F 30.2 in NW 15 mph 15 mph 58 % 0 in 255.0 W/m2 CLR
16:25 53.1 °F 38.3 °F 30.2 in NW 19.6 mph 19.6 mph 57 % 0 in 244.0 W/m2 CLR
16:30 53.1 °F 38.7 °F 30.2 in NW 19.6 mph 19.6 mph 58 % 0 in 229.0 W/m2 CLR
16:35 53.2 °F 38.8 °F 30.2 in WNW 12.7 mph 12.7 mph 58 % 0 in 209.0 W/m2 CLR
16:40 53.2 °F 38.8 °F 30.2 in WNW 13 mph 13 mph 58 % 0 in 195.0 W/m2 CLR
16:45 53.1 °F 37.8 °F 30.2 in NW 17.3 mph 17.3 mph 56 % 0 in 183.0 W/m2 CLR
16:50 53.1 °F 36.9 °F 30.2 in NW 16.1 mph 16.1 mph 54 % 0 in 158.0 W/m2 CLR
16:55 53.1 °F 37.2 °F 30.2 in NW 16.1 mph 16.1 mph 55 % 0 in 146.0 W/m2 CLR
17:00 52.9 °F 37.6 °F 30.2 in WNW 15 mph 15 mph 56 % 0 in 109.0 W/m2 CLR
17:05 52.9 °F 37 °F 30.2 in NW 13.8 mph 13.8 mph 55 % 0 in 98.0 W/m2 CLR
17:06 52.9 °F 37.6 °F 30.2 in NW 13.8 mph 13.8 mph 56 % 0 in 98.0 W/m2 CLR
17:11 52.5 °F 37.2 °F 30.2 in NW 11.5 mph 11.5 mph 56 % 0 in 86.0 W/m2 CLR
17:16 52.3 °F 37.6 °F 30.2 in NW 19 mph 19 mph 57 % 0 in 67.0 W/m2 SCT
17:21 52 °F 37.8 °F 30.2 in NW 15 mph 15 mph 58 % 0 in 70.0 W/m2 FEW
17:41 51.3 °F 37.4 °F 30.2 in WNW 10.4 mph 10.4 mph 59 % 0 in 19.0 W/m2 BKN
17:46 51.1 °F 37.2 °F 30.2 in WNW 11.5 mph 11.5 mph 59 % 0 in 16.0 W/m2 BKN
17:51 51.1 °F 37.2 °F 30.2 in WNW 11.5 mph 11.5 mph 59 % 0 in 11.0 W/m2 BKN
17:56 50.7 °F 37.4 °F 30.2 in WNW 11.5 mph 11.5 mph 60 % 0 in 9.0 W/m2 BKN
18:06 50.5 °F 36.9 °F 30.2 in West 6.9 mph 6.9 mph 59 % 0 in 5.0 W/m2 OVC
18:11 50.4 °F 36.7 °F 30.2 in West 8.1 mph 8.1 mph 59 % 0 in 0.0 W/m2 OVC
18:16 50.2 °F 36.9 °F 30.2 in Calm     60 % 0 in 0.0 W/m2 OVC
18:21 49.8 °F 36.7 °F 30.2 in Calm     60 % 0 in 0.0 W/m2 OVC
18:26 49.6 °F 36.9 °F 30.2 in WNW 9.2 mph 9.2 mph 61 % 0 in 0.0 W/m2 CLR
18:31 49.6 °F 37 °F 30.2 in Calm     62 % 0 in 0.0 W/m2 CLR
18:41 49.1 °F 37 °F 30.2 in Calm     63 % 0 in 0.0 W/m2 CLR
18:46 48.9 °F 36.9 °F 30.2 in WNW 5.8 mph 5.8 mph 63 % 0 in 0.0 W/m2 CLR
18:51 48.9 °F 36.9 °F 30.2 in WNW 9.2 mph 9.2 mph 63 % 0 in 0.0 W/m2 CLR
18:56 48.9 °F 36.3 °F 30.2 in WNW 11.5 mph 11.5 mph 62 % 0 in 0.0 W/m2 CLR
19:01 48.9 °F 36.3 °F 30.2 in WNW 12.7 mph 12.7 mph 62 % 0 in 0.0 W/m2 CLR
19:06 48.7 °F 36.3 °F 30.2 in West 9.2 mph 9.2 mph 62 % 0 in 0.0 W/m2 CLR
19:11 48.7 °F 36.3 °F 30.2 in West 10 mph 10 mph 62 % 0 in 0.0 W/m2 CLR
19:16 48.6 °F 36.1 °F 30.2 in West 10.4 mph 10.4 mph 62 % 0 in 0.0 W/m2 CLR
19:21 48.6 °F 36.1 °F 30.2 in West 5.8 mph 5.8 mph 62 % 0 in 0.0 W/m2 CLR
19:26 48.4 °F 36.3 °F 30.2 in West 3.5 mph   63 % 0 in 0.0 W/m2 CLR
19:31 48 °F 36.1 °F 30.2 in Calm     63 % 0 in 0.0 W/m2 CLR
19:36 48 °F 36.3 °F 30.2 in Calm     64 % 0 in 0.0 W/m2 CLR
19:41 47.8 °F 36.3 °F 30.2 in WSW 6.9 mph 6.9 mph 64 % 0 in 0.0 W/m2 CLR
19:51 47.8 °F 36.1 °F 30.2 in West 9.2 mph 9.2 mph 64 % 0 in 0.0 W/m2 CLR
19:56 47.8 °F 36.1 °F 30.3 in West 10 mph 10 mph 64 % 0 in 0.0 W/m2 CLR
20:01 47.8 °F 36.7 °F 30.3 in West 9.2 mph 9.2 mph 65 % 0 in 0.0 W/m2 CLR
20:06 47.8 °F 36.7 °F 30.3 in West 15 mph 15 mph 65 % 0 in 0.0 W/m2 CLR
20:16 48 °F 36.9 °F 30.3 in West 13.8 mph 13.8 mph 65 % 0 in 0.0 W/m2 CLR
20:21 48 °F 36.3 °F 30.3 in West 12.7 mph 12.7 mph 64 % 0 in 0.0 W/m2 CLR
20:26 48 °F 36.5 °F 30.3 in West 11.5 mph 11.5 mph 64 % 0 in 0.0 W/m2 CLR
20:31 48 °F 36.3 °F 30.3 in West 11.5 mph 11.5 mph 64 % 0 in 0.0 W/m2 CLR
20:36 47.8 °F 36.3 °F 30.3 in West 11.5 mph 11.5 mph 64 % 0 in 0.0 W/m2 CLR
20:41 47.8 °F 36.3 °F 30.3 in West 13.8 mph 13.8 mph 64 % 0 in 0.0 W/m2 CLR
20:46 47.8 °F 36.1 °F 30.3 in West 11.5 mph 11.5 mph 64 % 0 in 0.0 W/m2 CLR
20:51 47.7 °F 36.1 °F 30.3 in West 11.5 mph 11.5 mph 64 % 0 in 0.0 W/m2 CLR
21:01 46.9 °F 35.8 °F 30.3 in WSW 12.7 mph 12.7 mph 65 % 0 in 0.0 W/m2 CLR
21:06 46.6 °F 36.1 °F 30.3 in WSW 10.4 mph 10.4 mph 67 % 0 in 0.0 W/m2 CLR
21:12 45.9 °F 35.8 °F 30.3 in WSW 9.2 mph 9.2 mph 68 % 0 in 0.0 W/m2 CLR
21:17 45.1 °F 36 °F 30.3 in WSW 6.9 mph 6.9 mph 70 % 0 in 0.0 W/m2 CLR
21:27 45.9 °F 35.8 °F 30.3 in West 15 mph 15 mph 68 % 0 in 0.0 W/m2 CLR
21:32 46.4 °F 36 °F 30.3 in West 11.5 mph 11.5 mph 67 % 0 in 0.0 W/m2 CLR
21:37 46.6 °F 35.8 °F 30.3 in West 11.5 mph 11.5 mph 66 % 0 in 0.0 W/m2 CLR
21:42 46.6 °F 35.8 °F 30.3 in West 15 mph 15 mph 66 % 0 in 0.0 W/m2 CLR
21:47 46.6 °F 36.1 °F 30.3 in West 12.7 mph 12.7 mph 67 % 0 in 0.0 W/m2 CLR
21:52 46.2 °F 35.8 °F 30.3 in West 10.4 mph 10.4 mph 67 % 0 in 0.0 W/m2 CLR
21:57 46.2 °F 35.8 °F 30.3 in West 12.7 mph 12.7 mph 67 % 0 in 0.0 W/m2 CLR
22:02 46.6 °F 35.8 °F 30.3 in West 15 mph 15 mph 66 % 0 in 0.0 W/m2 CLR
22:07 46.6 °F 35.8 °F 30.3 in West 15 mph 15 mph 66 % 0 in 0.0 W/m2 CLR
22:12 46.6 °F 35.8 °F 30.3 in West 13.8 mph 13.8 mph 66 % 0 in 0.0 W/m2 CLR
22:17 46.8 °F 36 °F 30.3 in West 12.7 mph 12.7 mph 66 % 0 in 0.0 W/m2 CLR
22:22 46.6 °F 35.8 °F 30.3 in West 16.1 mph 16.1 mph 66 % 0 in 0.0 W/m2 CLR
22:27 46.6 °F 35.8 °F 30.3 in West 12.7 mph 12.7 mph 66 % 0 in 0.0 W/m2 CLR
22:32 46.4 °F 35.8 °F 30.3 in West 12.7 mph 12.7 mph 66 % 0 in 0.0 W/m2 CLR
22:37 46.2 °F 35.6 °F 30.3 in West 15 mph 15 mph 66 % 0 in 0.0 W/m2 CLR
22:42 46.2 °F 35.4 °F 30.3 in West 17.3 mph 17.3 mph 66 % 0 in 0.0 W/m2 CLR
22:47 46 °F 35.8 °F 30.3 in West 15 mph 15 mph 67 % 0 in 0.0 W/m2 CLR
22:52 45.9 °F 35.4 °F 30.3 in West 15 mph 15 mph 67 % 0 in 0.0 W/m2 CLR
22:57 45.7 °F 35.4 °F 30.3 in West 15 mph 15 mph 67 % 0 in 0.0 W/m2 CLR
23:02 45.3 °F 35.4 °F 30.3 in West 17.3 mph 17.3 mph 68 % 0 in 0.0 W/m2 CLR
23:07 45.3 °F 35.4 °F 30.3 in West 13 mph 13 mph 68 % 0 in 0.0 W/m2 CLR
23:12 45.3 °F 35.8 °F 30.3 in West 16.1 mph 16.1 mph 69 % 0 in 0.0 W/m2 CLR
23:17 45.1 °F 35.6 °F 30.3 in West 14 mph 14 mph 69 % 0 in 0.0 W/m2 CLR
23:22 45.1 °F 35.6 °F 30.3 in West 13 mph 13 mph 69 % 0 in 0.0 W/m2 CLR
23:27 45.1 °F 35.6 °F 30.3 in West 12 mph 12 mph 69 % 0 in 0.0 W/m2 CLR
23:32 45.1 °F 35.4 °F 30.3 in West 10.4 mph 10.4 mph 69 % 0 in 0.0 W/m2 CLR
23:37 45 °F 35.8 °F 30.3 in West 12.7 mph 12.7 mph 70 % 0 in 0.0 W/m2 CLR
23:42 45.1 °F 35.4 °F 30.3 in West 11.5 mph 11.5 mph 69 % 0 in 0.0 W/m2 CLR
23:47 45 °F 35.4 °F 30.3 in West 11.5 mph 11.5 mph 69 % 0 in 0.0 W/m2 CLR
23:52 45 °F 35.4 °F 30.3 in West 12 mph 12 mph 69 % 0 in 0.0 W/m2 CLR
23:57 45 °F 35.4 °F 30.3 in West 11.5 mph 11.5 mph 69 % 0 in 0.0 W/m2 CLR
Lo Temps de Massalio
Compliments of Weather Underground - 1 mb